createdAt,value
2018-08-22T00:00:08.618Z,3.87
2018-08-22T00:02:38.014Z,4.00
2018-08-22T00:05:07.597Z,3.50
2018-08-22T00:07:36.903Z,3.60
2018-08-22T00:10:06.121Z,3.20
2018-08-22T00:12:35.134Z,3.33
2018-08-22T00:15:04.669Z,3.90
2018-08-22T00:17:33.914Z,3.30
2018-08-22T00:20:03.937Z,3.83
2018-08-22T00:22:33.059Z,3.40
2018-08-22T00:25:02.449Z,3.43
2018-08-22T00:27:31.550Z,3.20
2018-08-22T00:30:01.007Z,4.13
2018-08-22T00:32:30.044Z,3.60
2018-08-22T00:34:59.094Z,3.40
2018-08-22T00:37:28.373Z,3.50
2018-08-22T00:39:57.643Z,3.80
2018-08-22T00:42:26.632Z,3.73
2018-08-22T00:44:55.956Z,3.60
2018-08-22T00:47:25.013Z,3.57
2018-08-22T00:49:54.050Z,3.73
2018-08-22T00:52:23.655Z,3.20
2018-08-22T00:54:52.799Z,3.80
2018-08-22T00:57:21.810Z,3.47
2018-08-22T00:59:51.088Z,3.53
2018-08-22T01:02:20.615Z,3.40
2018-08-22T01:04:49.656Z,3.50
2018-08-22T01:07:19.000Z,3.70
2018-08-22T01:09:48.175Z,3.30
2018-08-22T01:12:24.051Z,3.07
2018-08-22T01:14:53.294Z,3.00
2018-08-22T01:17:22.235Z,3.03
2018-08-22T01:19:52.041Z,3.97
2018-08-22T01:22:21.421Z,3.70
2018-08-22T01:24:50.789Z,3.43
2018-08-22T01:27:22.154Z,3.20
2018-08-22T01:29:53.246Z,3.90
2018-08-22T01:32:22.703Z,3.00
2018-08-22T01:34:52.626Z,3.20
2018-08-22T01:37:22.380Z,3.40
2018-08-22T01:39:51.608Z,2.93
2018-08-22T01:42:20.632Z,3.90
2018-08-22T01:44:49.973Z,2.93
2018-08-22T01:47:19.220Z,3.43
2018-08-22T01:49:48.613Z,3.30
2018-08-22T01:52:17.814Z,3.60
2018-08-22T01:54:46.985Z,3.47
2018-08-22T01:57:16.317Z,3.17
2018-08-22T01:59:45.276Z,3.57
2018-08-22T02:02:17.431Z,3.20
2018-08-22T02:04:47.283Z,3.20
2018-08-22T02:07:16.675Z,2.83
2018-08-22T02:09:45.823Z,3.20
2018-08-22T02:12:14.887Z,3.37
2018-08-22T02:14:44.685Z,3.73
2018-08-22T02:17:13.759Z,3.57
2018-08-22T02:19:43.452Z,2.70
2018-08-22T02:22:12.616Z,3.07
2018-08-22T02:24:41.903Z,3.70
2018-08-22T02:27:11.101Z,3.57
2018-08-22T02:29:40.673Z,3.23
2018-08-22T02:32:09.833Z,3.20
2018-08-22T02:34:38.803Z,3.37
2018-08-22T02:37:07.861Z,3.67
2018-08-22T02:39:37.128Z,3.43
2018-08-22T02:42:06.130Z,3.57
2018-08-22T02:44:35.617Z,3.00
2018-08-22T02:47:05.429Z,2.93
2018-08-22T02:49:34.729Z,3.30
2018-08-22T02:52:03.916Z,3.50
2018-08-22T02:54:33.293Z,3.20
2018-08-22T02:57:02.495Z,3.10
2018-08-22T02:59:31.713Z,3.40
2018-08-22T03:02:00.740Z,3.33
2018-08-22T03:04:29.847Z,3.10
2018-08-22T03:06:59.220Z,3.17
2018-08-22T03:09:28.254Z,3.27
2018-08-22T03:11:57.360Z,3.00
2018-08-22T03:14:26.519Z,3.20
2018-08-22T03:16:55.770Z,3.33
2018-08-22T03:19:24.819Z,3.57
2018-08-22T03:21:54.000Z,3.90
2018-08-22T03:24:23.895Z,3.60
2018-08-22T03:26:53.230Z,3.97
2018-08-22T03:29:22.584Z,3.47
2018-08-22T03:31:51.708Z,3.80
2018-08-22T03:34:21.201Z,3.63
2018-08-22T03:36:50.207Z,3.63
2018-08-22T03:39:19.556Z,3.60
2018-08-22T03:41:48.712Z,3.50
2018-08-22T03:44:17.878Z,3.33
2018-08-22T03:46:46.731Z,3.60
2018-08-22T03:49:15.837Z,3.53
2018-08-22T03:51:44.794Z,4.60
2018-08-22T03:54:13.884Z,3.63
2018-08-22T03:56:42.848Z,3.43
2018-08-22T03:59:11.987Z,3.50
2018-08-22T04:01:41.033Z,3.30
2018-08-22T04:04:10.231Z,3.73
2018-08-22T04:06:39.164Z,3.70
2018-08-22T04:09:08.928Z,3.73
2018-08-22T04:11:38.177Z,4.27
2018-08-22T04:14:07.228Z,3.50
2018-08-22T04:16:36.337Z,3.73
2018-08-22T04:19:05.290Z,4.27
2018-08-22T04:21:34.486Z,4.37
2018-08-22T04:24:05.434Z,3.90
2018-08-22T04:26:34.496Z,4.57
2018-08-22T04:29:04.504Z,4.63
2018-08-22T04:31:35.035Z,3.47
2018-08-22T04:34:04.169Z,3.60
2018-08-22T04:36:33.292Z,3.73
2018-08-22T04:39:02.655Z,3.97
2018-08-22T04:41:31.792Z,4.20
2018-08-22T04:44:01.030Z,3.23
2018-08-22T04:46:30.208Z,3.40
2018-08-22T04:48:59.611Z,3.50
2018-08-22T04:51:28.710Z,3.23
2018-08-22T04:53:59.227Z,3.60
2018-08-22T04:56:28.908Z,4.13
2018-08-22T04:58:58.323Z,3.90
2018-08-22T05:01:27.314Z,3.40
2018-08-22T05:03:56.535Z,3.90
2018-08-22T05:06:25.762Z,3.20
2018-08-22T05:08:54.812Z,3.90
2018-08-22T05:11:23.818Z,3.60
2018-08-22T05:13:52.823Z,3.50
2018-08-22T05:16:21.828Z,3.47
2018-08-22T05:18:51.060Z,4.07
2018-08-22T05:21:20.079Z,3.80
2018-08-22T05:23:49.070Z,4.40
2018-08-22T05:26:18.567Z,4.03
2018-08-22T05:28:47.794Z,4.20
2018-08-22T05:31:16.820Z,3.60
2018-08-22T05:33:45.782Z,4.07
2018-08-22T05:36:14.873Z,3.93
2018-08-22T05:38:43.950Z,3.53
2018-08-22T05:41:14.090Z,3.63
2018-08-22T05:43:43.291Z,3.77
2018-08-22T05:46:12.366Z,3.93
2018-08-22T05:48:41.460Z,3.90
2018-08-22T05:51:10.625Z,3.40
2018-08-22T05:53:39.690Z,6.53
2018-08-22T05:56:08.849Z,4.83
2018-08-22T05:58:38.445Z,6.30
2018-08-22T06:01:07.336Z,7.20
2018-08-22T06:03:36.456Z,5.50
2018-08-22T06:06:05.646Z,5.67
2018-08-22T06:08:34.650Z,4.40
2018-08-22T06:11:03.742Z,4.30
2018-08-22T06:13:32.858Z,4.30
2018-08-22T06:16:01.845Z,3.60
2018-08-22T06:18:31.368Z,4.20
2018-08-22T06:21:00.579Z,4.27
2018-08-22T06:23:29.625Z,4.27
2018-08-22T06:25:58.866Z,4.40
2018-08-22T06:28:28.486Z,4.50
2018-08-22T06:30:58.401Z,4.40
2018-08-22T06:33:27.648Z,4.90
2018-08-22T06:35:56.980Z,4.17
2018-08-22T06:38:26.303Z,4.30
2018-08-22T06:40:55.840Z,4.33
2018-08-22T06:43:24.972Z,4.33
2018-08-22T06:45:54.196Z,4.87
2018-08-22T06:48:23.169Z,4.73
2018-08-22T06:50:52.166Z,5.07
2018-08-22T06:53:21.188Z,4.13
2018-08-22T06:55:50.406Z,4.73
2018-08-22T06:58:22.208Z,4.20
2018-08-22T07:00:51.446Z,4.87
2018-08-22T07:03:20.573Z,4.80
2018-08-22T07:05:49.538Z,4.30
2018-08-22T07:08:18.824Z,4.63
2018-08-22T07:10:47.883Z,4.30
2018-08-22T07:13:16.857Z,4.97
2018-08-22T07:15:46.262Z,4.10
2018-08-22T07:18:15.506Z,4.93
2018-08-22T07:20:44.833Z,4.60
2018-08-22T07:23:13.937Z,4.50
2018-08-22T07:25:43.087Z,3.90
2018-08-22T07:28:12.204Z,4.83
2018-08-22T07:30:42.857Z,4.70
2018-08-22T07:33:11.834Z,4.40
2018-08-22T07:35:40.948Z,4.10
2018-08-22T07:38:10.149Z,4.67
2018-08-22T07:40:39.168Z,4.07
2018-08-22T07:43:09.317Z,3.80
2018-08-22T07:45:38.342Z,4.70
2018-08-22T07:48:07.859Z,4.30
2018-08-22T07:50:37.933Z,4.43
2018-08-22T07:53:07.077Z,5.20
2018-08-22T07:55:38.903Z,4.27
2018-08-22T07:58:08.436Z,4.30
2018-08-22T08:00:37.518Z,4.60
2018-08-22T08:03:06.517Z,4.43
2018-08-22T08:05:35.602Z,4.33
2018-08-22T08:08:04.994Z,4.80
2018-08-22T08:10:36.559Z,4.33
2018-08-22T08:13:14.270Z,5.00
2018-08-22T08:15:43.354Z,4.30
2018-08-22T08:18:12.423Z,4.90
2018-08-22T08:20:41.493Z,4.80
2018-08-22T08:23:10.728Z,5.37
2018-08-22T08:25:39.874Z,4.80
2018-08-22T08:28:09.225Z,5.40
2018-08-22T08:30:38.481Z,5.30
2018-08-22T08:33:08.667Z,5.20
2018-08-22T08:35:37.824Z,4.83
2018-08-22T08:38:07.162Z,5.60
2018-08-22T08:40:36.261Z,5.80
2018-08-22T08:43:05.368Z,5.27
2018-08-22T08:45:34.516Z,4.63
2018-08-22T08:48:03.952Z,4.53
2018-08-22T08:50:33.033Z,4.77
2018-08-22T08:53:02.090Z,5.00
2018-08-22T08:55:31.140Z,4.77
2018-08-22T08:58:00.262Z,5.30
2018-08-22T09:00:29.739Z,5.50
2018-08-22T09:02:58.839Z,5.33
2018-08-22T09:05:27.929Z,4.67
2018-08-22T09:07:57.001Z,4.73
2018-08-22T09:10:26.157Z,5.03
2018-08-22T09:12:55.437Z,6.07
2018-08-22T09:15:24.637Z,5.30
2018-08-22T09:17:54.060Z,5.13
2018-08-22T09:20:23.548Z,5.83
2018-08-22T09:22:52.508Z,5.30
2018-08-22T09:25:21.738Z,5.00
2018-08-22T09:27:50.964Z,5.20
2018-08-22T09:30:19.985Z,4.20
2018-08-22T09:32:49.203Z,4.77
2018-08-22T09:35:18.593Z,4.43
2018-08-22T09:37:47.514Z,4.80
2018-08-22T09:40:16.677Z,6.00
2018-08-22T09:42:45.998Z,5.07
2018-08-22T09:45:15.035Z,4.70
2018-08-22T09:47:44.315Z,5.13
2018-08-22T09:50:13.936Z,5.40
2018-08-22T09:52:42.946Z,5.03
2018-08-22T09:55:12.247Z,5.10
2018-08-22T09:57:41.877Z,5.60
2018-08-22T10:00:16.279Z,5.50
2018-08-22T10:02:46.464Z,5.80
2018-08-22T10:05:15.676Z,4.37
2018-08-22T10:07:44.876Z,4.43
2018-08-22T10:10:14.236Z,4.97
2018-08-22T10:12:43.467Z,4.77
2018-08-22T10:15:12.558Z,4.70
2018-08-22T10:17:41.685Z,5.33
2018-08-22T10:20:11.628Z,5.30
2018-08-22T10:22:40.900Z,4.73
2018-08-22T10:25:10.080Z,4.67
2018-08-22T10:27:39.083Z,5.63
2018-08-22T10:30:08.414Z,4.97
2018-08-22T10:32:37.856Z,4.70
2018-08-22T10:35:07.007Z,5.37
2018-08-22T10:37:36.155Z,4.97
2018-08-22T10:40:05.323Z,5.50
2018-08-22T10:42:34.466Z,4.93
2018-08-22T10:45:03.442Z,4.60
2018-08-22T10:47:32.960Z,4.63
2018-08-22T10:50:01.918Z,4.87
2018-08-22T10:52:31.160Z,4.97
2018-08-22T10:55:00.158Z,4.10
2018-08-22T10:57:29.368Z,4.70
2018-08-22T10:59:58.643Z,4.17
2018-08-22T11:02:34.108Z,4.40
2018-08-22T11:05:04.129Z,5.00
2018-08-22T11:07:33.195Z,4.60
2018-08-22T11:10:02.405Z,4.80
2018-08-22T11:12:31.715Z,4.53
2018-08-22T11:15:00.745Z,5.60
2018-08-22T11:17:30.683Z,4.73
2018-08-22T11:19:59.820Z,4.23
2018-08-22T11:22:39.533Z,5.03
2018-08-22T11:25:19.409Z,4.23
2018-08-22T11:27:59.364Z,4.70
2018-08-22T11:30:39.482Z,4.40
2018-08-22T11:33:19.178Z,4.33
2018-08-22T11:35:46.768Z,4.40
2018-08-22T11:38:15.895Z,4.50
2018-08-22T11:40:45.022Z,4.60
2018-08-22T11:43:14.055Z,4.60
2018-08-22T11:45:43.212Z,4.47
2018-08-22T11:48:12.352Z,4.63
2018-08-22T11:50:41.537Z,4.83
2018-08-22T11:53:10.648Z,4.20
2018-08-22T11:55:40.357Z,4.37
2018-08-22T11:58:09.674Z,4.60
2018-08-22T12:00:38.723Z,4.80
2018-08-22T12:03:07.879Z,4.63
2018-08-22T12:05:37.049Z,4.33
2018-08-22T12:08:06.075Z,5.50
2018-08-22T12:10:35.468Z,4.60
2018-08-22T12:13:06.757Z,4.33
2018-08-22T12:15:36.103Z,5.30
2018-08-22T12:18:05.276Z,4.40
2018-08-22T12:20:35.548Z,4.47
2018-08-22T12:23:05.097Z,4.20
2018-08-22T12:25:34.613Z,5.07
2018-08-22T12:28:03.525Z,4.87
2018-08-22T12:30:32.577Z,4.70
2018-08-22T12:33:01.843Z,3.93
2018-08-22T12:35:31.008Z,4.10
2018-08-22T12:37:59.928Z,4.77
2018-08-22T12:40:29.046Z,5.10
2018-08-22T12:42:58.074Z,3.83
2018-08-22T12:45:27.415Z,4.00
2018-08-22T12:47:56.534Z,4.50
2018-08-22T12:50:25.773Z,4.23
2018-08-22T12:52:55.071Z,4.30
2018-08-22T12:55:24.997Z,4.50
2018-08-22T12:57:54.492Z,4.40
2018-08-22T13:00:23.887Z,4.10
2018-08-22T13:02:52.923Z,4.50
2018-08-22T13:05:22.153Z,4.93
2018-08-22T13:07:51.246Z,4.53
2018-08-22T13:10:20.500Z,4.20
2018-08-22T13:12:49.862Z,4.50
2018-08-22T13:15:19.173Z,4.03
2018-08-22T13:17:48.953Z,4.27
2018-08-22T13:20:18.363Z,4.50
2018-08-22T13:22:47.953Z,5.17
2018-08-22T13:25:16.992Z,4.50
2018-08-22T13:27:46.271Z,4.90
2018-08-22T13:30:16.016Z,4.20
2018-08-22T13:32:45.488Z,4.60
2018-08-22T13:35:14.706Z,4.30
2018-08-22T13:37:44.128Z,4.60
2018-08-22T13:40:13.308Z,4.47
2018-08-22T13:42:43.115Z,4.83
2018-08-22T13:45:12.730Z,4.70
2018-08-22T13:47:41.829Z,3.80
2018-08-22T13:50:10.977Z,4.30
2018-08-22T13:52:40.318Z,4.87
2018-08-22T13:55:09.384Z,4.13
2018-08-22T13:57:38.435Z,3.70
2018-08-22T14:00:08.207Z,4.63
2018-08-22T14:02:37.305Z,5.10
2018-08-22T14:05:06.509Z,4.00
2018-08-22T14:07:35.719Z,4.30
2018-08-22T14:10:05.121Z,5.00
2018-08-22T14:12:34.617Z,5.20
2018-08-22T14:15:03.833Z,4.20
2018-08-22T14:17:33.079Z,4.60
2018-08-22T14:20:02.592Z,4.17
2018-08-22T14:22:31.865Z,4.70
2018-08-22T14:25:01.239Z,4.40
2018-08-22T14:27:30.494Z,5.60
2018-08-22T14:29:59.841Z,4.97
2018-08-22T14:32:29.031Z,4.47
2018-08-22T14:34:58.178Z,5.30
2018-08-22T14:37:27.430Z,4.23
2018-08-22T14:39:56.538Z,4.87
2018-08-22T14:42:25.535Z,4.07
2018-08-22T14:44:54.526Z,3.90
2018-08-22T14:47:23.531Z,4.13
2018-08-22T14:49:52.651Z,4.43
2018-08-22T14:52:21.783Z,3.93
2018-08-22T14:54:50.774Z,4.70
2018-08-22T14:57:19.808Z,4.43
2018-08-22T14:59:48.891Z,4.10
2018-08-22T15:02:18.074Z,4.13
2018-08-22T15:04:46.991Z,4.60
2018-08-22T15:07:16.205Z,4.90
2018-08-22T15:09:46.087Z,4.67
2018-08-22T15:12:15.156Z,4.37
2018-08-22T15:14:44.682Z,4.30
2018-08-22T15:17:13.834Z,4.73
2018-08-22T15:19:43.063Z,4.63
2018-08-22T15:22:12.394Z,4.60
2018-08-22T15:24:41.554Z,4.13
2018-08-22T15:27:10.586Z,4.60
2018-08-22T15:29:39.701Z,4.77
2018-08-22T15:32:08.860Z,4.00
2018-08-22T15:34:49.358Z,4.70
2018-08-22T15:37:18.325Z,4.90
2018-08-22T15:39:47.277Z,4.43
2018-08-22T15:42:16.708Z,5.07
2018-08-22T15:44:46.121Z,4.70
2018-08-22T15:47:15.268Z,4.70
2018-08-22T15:49:45.403Z,5.43
2018-08-22T15:52:14.814Z,4.50
2018-08-22T15:55:18.609Z,4.90
2018-08-22T15:58:00.114Z,4.50
2018-08-22T16:00:36.307Z,4.63
2018-08-22T16:03:06.502Z,4.50
2018-08-22T16:05:36.265Z,5.27
2018-08-22T16:08:06.300Z,4.70
2018-08-22T16:10:35.452Z,4.90
2018-08-22T16:13:04.677Z,5.40
2018-08-22T16:15:34.863Z,4.77
2018-08-22T16:18:06.421Z,4.50
2018-08-22T16:20:43.837Z,4.57
2018-08-22T16:23:12.842Z,4.57
2018-08-22T16:25:43.528Z,4.97
2018-08-22T16:28:12.650Z,4.90
2018-08-22T16:30:42.151Z,3.93
2018-08-22T16:33:11.706Z,4.83
2018-08-22T16:35:47.810Z,5.07
2018-08-22T16:38:17.161Z,5.50
2018-08-22T16:40:49.835Z,4.60
2018-08-22T16:43:44.122Z,4.70
2018-08-22T16:46:16.037Z,5.00
2018-08-22T16:48:47.978Z,5.13
2018-08-22T16:51:17.167Z,4.80
2018-08-22T16:53:59.612Z,4.73
2018-08-22T16:56:29.369Z,4.70
2018-08-22T16:59:02.417Z,5.00
2018-08-22T17:01:31.678Z,5.13
2018-08-22T17:04:00.596Z,4.73
2018-08-22T17:06:29.874Z,4.80
2018-08-22T17:08:59.496Z,5.20
2018-08-22T17:11:28.502Z,4.83
2018-08-22T17:13:57.610Z,4.70
2018-08-22T17:16:26.894Z,4.40
2018-08-22T17:18:55.999Z,4.50
2018-08-22T17:21:25.781Z,5.33
2018-08-22T17:23:54.819Z,4.50
2018-08-22T17:26:24.373Z,4.97
2018-08-22T17:28:56.991Z,5.03
2018-08-22T17:31:27.160Z,4.60
2018-08-22T17:33:58.663Z,4.80
2018-08-22T17:36:27.929Z,5.00
2018-08-22T17:38:57.862Z,4.57
2018-08-22T17:41:28.083Z,5.30
2018-08-22T17:44:15.362Z,5.50
2018-08-22T17:46:49.399Z,4.80
2018-08-22T17:49:18.528Z,5.00
2018-08-22T17:51:57.524Z,5.53
2018-08-22T17:54:27.183Z,5.43
2018-08-22T17:57:08.691Z,5.90
2018-08-22T17:59:37.695Z,5.70
2018-08-22T18:02:06.998Z,5.83
2018-08-22T18:04:46.950Z,5.17
2018-08-22T18:07:16.879Z,4.90
2018-08-22T18:09:46.794Z,5.47
2018-08-22T18:12:16.272Z,5.87
2018-08-22T18:14:45.233Z,5.53
2018-08-22T18:17:15.632Z,5.57
2018-08-22T18:19:44.637Z,6.00
2018-08-22T18:22:13.835Z,6.50
2018-08-22T18:24:47.341Z,6.20
2018-08-22T18:27:17.369Z,5.50
2018-08-22T18:29:47.289Z,5.47
2018-08-22T18:32:16.688Z,5.57
2018-08-22T18:35:09.795Z,5.93
2018-08-22T18:37:39.734Z,6.20
2018-08-22T18:40:15.684Z,6.03
2018-08-22T18:42:47.174Z,5.73
2018-08-22T18:45:16.256Z,5.53
2018-08-22T18:47:45.662Z,5.77
2018-08-22T18:50:15.149Z,5.93
2018-08-22T18:52:46.720Z,6.17
2018-08-22T18:55:16.365Z,4.90
2018-08-22T18:57:46.184Z,6.37
2018-08-22T19:00:15.363Z,6.27
2018-08-22T19:02:44.426Z,6.57
2018-08-22T19:05:30.003Z,5.57
2018-08-22T19:08:02.153Z,6.03
2018-08-22T19:10:32.490Z,6.10
2018-08-22T19:13:06.687Z,5.60
2018-08-22T19:15:36.671Z,5.87
2018-08-22T19:18:07.438Z,6.00
2018-08-22T19:20:36.699Z,5.47
2018-08-22T19:23:05.855Z,5.60
2018-08-22T19:25:35.652Z,5.20
2018-08-22T19:28:04.896Z,5.60
2018-08-22T19:30:37.398Z,5.90
2018-08-22T19:33:10.074Z,5.90
2018-08-22T19:35:38.931Z,5.80
2018-08-22T19:38:08.704Z,7.40
2018-08-22T19:40:38.256Z,6.23
2018-08-22T19:43:07.563Z,7.10
2018-08-22T19:45:36.955Z,5.87
2018-08-22T19:48:06.392Z,5.87
2018-08-22T19:50:35.365Z,6.13
2018-08-22T19:53:04.556Z,7.57
2018-08-22T19:55:34.484Z,6.43
2018-08-22T19:58:03.722Z,6.10
2018-08-22T20:00:32.894Z,6.47
2018-08-22T20:03:02.324Z,5.90
2018-08-22T20:05:51.768Z,6.10
2018-08-22T20:08:25.800Z,5.97
2018-08-22T20:10:54.824Z,6.30
2018-08-22T20:13:24.153Z,6.60
2018-08-22T20:15:53.787Z,6.90
2018-08-22T20:18:23.529Z,6.10
2018-08-22T20:20:52.792Z,6.30
2018-08-22T20:23:23.152Z,6.43
2018-08-22T20:25:52.507Z,6.43
2018-08-22T20:28:21.776Z,6.23
2018-08-22T20:30:51.634Z,6.33
2018-08-22T20:33:20.640Z,6.40
2018-08-22T20:35:49.619Z,6.33
2018-08-22T20:38:18.807Z,7.37
2018-08-22T20:40:49.925Z,6.83
2018-08-22T20:43:25.140Z,6.23
2018-08-22T20:45:54.487Z,6.47
2018-08-22T20:48:23.857Z,6.40
2018-08-22T20:50:52.997Z,6.60
2018-08-22T20:53:22.825Z,6.17
2018-08-22T20:55:54.698Z,6.60
2018-08-22T20:58:32.802Z,6.30
2018-08-22T21:01:01.866Z,6.90
2018-08-22T21:03:31.076Z,6.50
2018-08-22T21:06:00.472Z,6.60
2018-08-22T21:08:29.776Z,6.57
2018-08-22T21:10:58.697Z,6.53
2018-08-22T21:13:27.805Z,6.70
2018-08-22T21:15:57.441Z,6.23
2018-08-22T21:18:26.538Z,6.10
2018-08-22T21:20:55.546Z,6.10
2018-08-22T21:23:24.511Z,6.93
2018-08-22T21:25:53.627Z,5.97
2018-08-22T21:28:28.686Z,6.57
2018-08-22T21:31:00.893Z,6.47
2018-08-22T21:33:30.967Z,6.53
2018-08-22T21:36:00.175Z,6.70
2018-08-22T21:38:30.056Z,6.80
2018-08-22T21:40:59.278Z,6.70
2018-08-22T21:43:28.545Z,6.57
2018-08-22T21:45:57.686Z,6.33
2018-08-22T21:48:27.140Z,5.90
2018-08-22T21:50:56.162Z,7.23
2018-08-22T21:53:25.307Z,6.37
2018-08-22T21:55:54.690Z,6.73
2018-08-22T21:58:24.120Z,6.33
2018-08-22T22:00:53.187Z,7.10
2018-08-22T22:03:27.895Z,6.90
2018-08-22T22:06:00.892Z,6.37
2018-08-22T22:08:30.203Z,6.80
2018-08-22T22:11:04.262Z,7.33
2018-08-22T22:13:33.598Z,6.87
2018-08-22T22:16:04.354Z,6.10
2018-08-22T22:18:34.599Z,7.10
2018-08-22T22:21:11.127Z,6.50
2018-08-22T22:23:49.237Z,7.50
2018-08-22T22:26:19.453Z,7.23
2018-08-22T22:28:48.572Z,6.50
2018-08-22T22:31:18.258Z,6.43
2018-08-22T22:34:07.040Z,7.00
2018-08-22T22:36:44.950Z,7.30
2018-08-22T22:39:27.758Z,6.50
2018-08-22T22:41:56.996Z,6.50
2018-08-22T22:44:26.633Z,7.50
2018-08-22T22:46:55.658Z,6.60
2018-08-22T22:49:25.274Z,6.27
2018-08-22T22:51:54.420Z,6.87
2018-08-22T22:54:34.139Z,6.27
2018-08-22T22:57:02.934Z,6.60
2018-08-22T22:59:32.118Z,6.27
2018-08-22T23:02:01.330Z,7.07
2018-08-22T23:04:39.974Z,6.70
2018-08-22T23:07:22.302Z,6.90
2018-08-22T23:09:52.771Z,7.30
2018-08-22T23:12:28.801Z,6.73
2018-08-22T23:14:58.315Z,7.50
2018-08-22T23:17:27.637Z,6.73
2018-08-22T23:20:26.079Z,7.00
2018-08-22T23:22:55.311Z,7.17
2018-08-22T23:25:24.710Z,7.07
2018-08-22T23:27:53.663Z,7.30
2018-08-22T23:30:28.298Z,7.33
2018-08-22T23:32:57.363Z,7.10
2018-08-22T23:35:29.353Z,7.40
2018-08-22T23:37:59.699Z,6.83
2018-08-22T23:40:30.027Z,7.80
2018-08-22T23:42:59.330Z,7.00
2018-08-22T23:45:28.959Z,7.70
2018-08-22T23:47:58.036Z,7.10
2018-08-22T23:50:45.663Z,7.07
2018-08-22T23:53:14.926Z,6.97
2018-08-22T23:55:44.581Z,8.90
2018-08-22T23:58:13.678Z,7.00
